Time;durP1;ratioP1;P1;durP2;ratioP2;P2;SDS_P1;SDS_P2;PMS_P1;PMS_P2;Temp;Humidity;BMP_temperature;BMP_pressure;BME280_temperature;BME280_humidity;BME280_pressure;Samples;Min_cycle;Max_cycle;Signal;HPM_P1;HPM_P2
2022/12/04 00:01:57;;;;;;;;;;;;;;;8.71;76.45;96094.69;5115173;28;1231;-68
2022/12/04 00:04:23;;;;;;;;;;;;;;;8.67;76.70;96104.78;5115174;28;1108;-67
2022/12/04 00:06:49;;;;;;;;;;;;;;;8.58;77.32;96103.69;5097284;28;1057;-67
2022/12/04 00:09:16;;;;;;;;;;;;;;;8.51;77.59;96109.66;5114965;28;1061;-68
2022/12/04 00:11:42;;;;;;;;;;;;;;;8.39;78.29;96103.47;5114888;28;1104;-68
2022/12/04 00:14:08;;;;;;;;;;;;;;;8.54;78.21;96104.09;5096861;28;1989;-67
2022/12/04 00:16:34;;;;;;;;;;;;;;;8.68;77.42;96100.28;5114863;28;999;-68
2022/12/04 00:19:00;;;;;;;;;;;;;;;8.65;76.61;96112.06;5114845;28;1029;-68
2022/12/04 00:21:26;;;;;;;;;;;;;;;8.61;76.80;96110.59;5114469;28;1088;-66
2022/12/04 00:23:52;;;;;;;;;;;;;;;8.48;77.08;96110.75;5114945;28;1047;-67
2022/12/04 00:26:20;;;;;;;;;;;;;;;8.52;77.41;96108.69;5096643;28;1030;-67
2022/12/04 00:28:46;;;;;;;;;;;;;;;8.56;77.08;96108.31;5114678;28;973;-67
2022/12/04 00:31:13;;;;;;;;;;;;;;;8.56;76.82;96104.81;5096128;28;1037;-68
2022/12/04 00:33:39;;;;;;;;;;;;;;;8.57;76.98;96109.16;5114404;28;1914;-68
2022/12/04 00:36:07;;;;;;;;;;;;;;;8.59;77.17;96107.19;5114806;28;1055;-68
2022/12/04 00:38:34;;;;;;;;;;;;;;;8.62;77.36;96104.28;5096312;28;1212;-67
2022/12/04 00:41:00;;;;;;;;;;;;;;;8.62;77.05;96106.13;5114659;28;989;-68
2022/12/04 00:43:26;;;;;;;;;;;;;;;8.56;77.13;96112.81;5096413;28;1027;-68
2022/12/04 00:45:52;;;;;;;;;;;;;;;8.46;78.07;96112.69;5114424;28;1085;-68
2022/12/04 00:48:19;;;;;;;;;;;;;;;8.58;77.71;96109.03;5114314;28;969;-68
2022/12/04 00:50:45;;;;;;;;;;;;;;;8.65;77.19;96106.72;5114272;28;1132;-67
2022/12/04 00:53:11;;;;;;;;;;;;;;;8.67;77.28;96118.09;5114459;28;1051;-67
2022/12/04 00:55:38;;;;;;;;;;;;;;;8.71;76.69;96114.22;5096214;28;1906;-67
2022/12/04 00:58:06;;;;;;;;;;;;;;;8.67;76.88;96115.44;5114294;28;976;-67
2022/12/04 01:00:33;;;;;;;;;;;;;;;8.65;76.95;96117.38;5096060;28;1032;-67
2022/12/04 01:03:00;;;;;;;;;;;;;;;8.62;76.76;96114.13;5096134;28;981;-67
2022/12/04 01:05:26;;;;;;;;;;;;;;;8.60;77.03;96106.25;5113980;28;1124;-67
2022/12/04 01:07:52;;;;;;;;;;;;;;;8.65;77.11;96103.19;5114269;28;1020;-67
2022/12/04 01:10:18;;;;;;;;;;;;;;;8.67;76.71;96109.22;5114023;28;1053;-67
2022/12/04 01:12:44;;;;;;;;;;;;;;;8.63;77.21;96103.31;5113906;28;1128;-68
2022/12/04 01:15:10;;;;;;;;;;;;;;;8.47;77.83;96103.72;5113969;28;1913;-67
2022/12/04 01:17:37;;;;;;;;;;;;;;;8.57;77.12;96098.47;5095852;28;989;-68
2022/12/04 01:20:03;;;;;;;;;;;;;;;8.50;77.91;96102.63;5114197;28;1033;-68
2022/12/04 01:22:29;;;;;;;;;;;;;;;8.61;77.48;96097.25;5113708;28;1304;-67
2022/12/04 01:24:55;;;;;;;;;;;;;;;8.69;77.18;96100.16;5114043;28;1099;-68
2022/12/04 01:27:21;;;;;;;;;;;;;;;8.64;77.22;96094.34;5095739;28;1088;-68
2022/12/04 01:29:48;;;;;;;;;;;;;;;8.59;77.77;96096.53;5113837;28;1036;-68
2022/12/04 01:32:14;;;;;;;;;;;;;;;8.65;77.31;96089.84;5113727;28;1132;-67
2022/12/04 01:34:40;;;;;;;;;;;;;;;8.68;77.20;96093.13;5113534;28;1909;-68
2022/12/04 01:37:06;;;;;;;;;;;;;;;8.56;77.91;96086.16;5113932;28;954;-67
2022/12/04 01:39:34;;;;;;;;;;;;;;;8.68;77.49;96084.28;5113488;28;1161;-67
2022/12/04 01:42:00;;;;;;;;;;;;;;;8.75;77.00;96094.31;5115199;28;1040;-67
2022/12/04 01:44:28;;;;;;;;;;;;;;;8.68;77.09;96089.63;5117885;28;996;-67
2022/12/04 01:46:59;;;;;;;;;;;;;;;8.62;77.84;96090.97;5117817;28;1040;-68
2022/12/04 01:49:43;;;;;;;;;;;;;;;8.56;78.17;96080.81;5117687;28;1049;-67
2022/12/04 01:52:27;;;;;;;;;;;;;;;8.50;78.13;96081.28;5117739;28;1049;-67
2022/12/04 01:54:55;;;;;;;;;;;;;;;8.59;78.10;96081.41;5099685;28;1991;-68
2022/12/04 01:57:23;;;;;;;;;;;;;;;8.53;78.00;96079.22;5117644;28;1084;-67
2022/12/04 01:59:56;;;;;;;;;;;;;;;8.51;78.06;96078.50;5117761;28;1001;-67
2022/12/04 02:02:25;;;;;;;;;;;;;;;8.43;78.32;96077.47;5117600;28;1060;-68
2022/12/04 02:04:52;;;;;;;;;;;;;;;8.43;78.64;96074.78;5117648;28;1028;-67
2022/12/04 02:07:18;;;;;;;;;;;;;;;8.54;78.04;96072.94;5099412;28;1104;-68
2022/12/04 02:09:44;;;;;;;;;;;;;;;8.56;77.86;96070.16;5117248;28;1053;-68
2022/12/04 02:12:22;;;;;;;;;;;;;;;8.59;77.71;96072.53;5117642;28;1012;-68
2022/12/04 02:14:54;;;;;;;;;;;;;;;8.52;78.10;96068.72;5117413;28;1987;-67
2022/12/04 02:17:20;;;;;;;;;;;;;;;8.53;78.35;96062.41;5117515;28;1060;-68
2022/12/04 02:19:59;;;;;;;;;;;;;;;8.64;78.13;96067.69;5117251;28;1040;-67
2022/12/04 02:22:43;;;;;;;;;;;;;;;8.68;78.14;96068.28;5117053;28;1115;-68
2022/12/04 02:25:28;;;;;;;;;;;;;;;8.68;78.20;96071.78;5117362;28;984;-68
2022/12/04 02:27:57;;;;;;;;;;;;;;;8.60;78.57;96077.75;5117090;28;1116;-68
2022/12/04 02:30:23;;;;;;;;;;;;;;;8.55;78.22;96079.09;5099005;28;990;-67
2022/12/04 02:32:58;;;;;;;;;;;;;;;8.43;78.95;96074.78;5116904;28;1074;-68
2022/12/04 02:35:26;;;;;;;;;;;;;;;8.44;79.02;96068.47;5117077;28;1926;-68
2022/12/04 02:37:57;;;;;;;;;;;;;;;8.58;78.24;96062.88;5117122;28;965;-67
2022/12/04 02:40:24;;;;;;;;;;;;;;;8.59;77.41;96070.75;5096551;28;1048;-68
2022/12/04 02:42:58;;;;;;;;;;;;;;;8.58;77.72;96065.53;5096461;28;1021;-68
2022/12/04 02:45:28;;;;;;;;;;;;;;;8.57;77.78;96067.38;5096303;28;1046;-68
2022/12/04 02:47:55;;;;;;;;;;;;;;;8.51;78.00;96057.19;5096506;28;1024;-68
2022/12/04 02:50:23;;;;;;;;;;;;;;;8.61;77.74;96065.25;5096172;28;1116;-67
2022/12/04 02:52:59;;;;;;;;;;;;;;;8.53;77.89;96068.56;5095750;28;1028;-67
2022/12/04 02:55:29;;;;;;;;;;;;;;;8.37;78.94;96063.63;5096171;28;1975;-67
2022/12/04 02:57:57;;;;;;;;;;;;;;;8.34;79.63;96066.53;5096133;28;985;-67
2022/12/04 03:00:23;;;;;;;;;;;;;;;8.48;79.02;96067.25;5096328;28;989;-67
2022/12/04 03:02:55;;;;;;;;;;;;;;;8.49;78.82;96066.28;5096151;28;1056;-66
2022/12/04 03:05:26;;;;;;;;;;;;;;;8.46;78.70;96066.53;5096086;28;1046;-67
2022/12/04 03:07:54;;;;;;;;;;;;;;;8.48;78.06;96057.47;5096086;28;1017;-67
2022/12/04 03:10:32;;;;;;;;;;;;;;;8.46;77.85;96061.19;5095904;28;1124;-67
2022/12/04 03:13:05;;;;;;;;;;;;;;;8.47;77.86;96057.56;5095830;28;1084;-67
2022/12/04 03:15:38;;;;;;;;;;;;;;;8.51;77.74;96067.84;5077899;28;1906;-66
2022/12/04 03:18:06;;;;;;;;;;;;;;;8.51;77.57;96073.19;5095752;28;1059;-68
2022/12/04 03:20:34;;;;;;;;;;;;;;;8.53;77.70;96068.56;5095437;28;1235;-67
2022/12/04 03:23:05;;;;;;;;;;;;;;;8.56;78.20;96059.50;5095662;28;1081;-67
2022/12/04 03:25:34;;;;;;;;;;;;;;;8.51;78.68;96062.50;5095790;28;973;-67
2022/12/04 03:28:04;;;;;;;;;;;;;;;8.56;78.86;96070.16;5095725;28;1032;-67
2022/12/04 03:30:34;;;;;;;;;;;;;;;8.62;78.74;96079.47;5095581;28;1064;-67
2022/12/04 03:33:07;;;;;;;;;;;;;;;8.62;78.84;96079.47;5095664;28;1016;-67
2022/12/04 03:35:58;;;;;;;;;;;;;;;8.62;78.56;96074.13;5095240;28;1905;-67
2022/12/04 03:38:40;;;;;;;;;;;;;;;8.58;78.49;96069.03;5099130;28;1146;-67
2022/12/04 03:41:11;;;;;;;;;;;;;;;8.57;78.49;96070.03;5115764;28;1005;-67
2022/12/04 03:43:43;;;;;;;;;;;;;;;8.55;78.59;96069.28;5115638;28;1028;-67
2022/12/04 03:46:16;;;;;;;;;;;;;;;8.40;79.57;96076.72;5115578;28;1048;-68
2022/12/04 03:48:48;;;;;;;;;;;;;;;8.51;79.37;96073.19;5115499;28;1096;-68
2022/12/04 03:51:38;;;;;;;;;;;;;;;8.62;78.70;96077.63;5115692;28;1036;-68
2022/12/04 03:54:07;;;;;;;;;;;;;;;8.65;78.48;96079.19;5102300;28;1988;-67
2022/12/04 03:56:42;;;;;;;;;;;;;;;8.63;78.26;96079.31;5115285;28;1044;-67
2022/12/04 03:59:11;;;;;;;;;;;;;;;8.49;79.11;96074.28;5115599;28;921;-68
2022/12/04 04:01:40;;;;;;;;;;;;;;;8.35;79.86;96084.22;5115301;28;982;-68
2022/12/04 04:04:09;;;;;;;;;;;;;;;8.44;79.67;96071.13;5114428;28;1216;-68
2022/12/04 04:06:41;;;;;;;;;;;;;;;8.48;79.41;96073.44;5115099;28;1024;-67
2022/12/04 04:09:14;;;;;;;;;;;;;;;8.55;78.92;96068.44;5115064;28;1033;-67
2022/12/04 04:11:57;;;;;;;;;;;;;;;8.60;78.54;96071.59;5115506;28;1052;-68
2022/12/04 04:25:39;;;;;;;;;;;;;;;8.27;79.88;96085.78;5114644;28;1065;-67
2022/12/04 04:28:05;;;;;;;;;;;;;;;8.37;79.82;96087.59;5114730;28;1061;-67
2022/12/04 04:30:32;;;;;;;;;;;;;;;8.52;79.06;96082.88;5114805;28;949;-67
2022/12/04 04:33:06;;;;;;;;;;;;;;;8.60;78.70;96079.59;5114641;28;1056;-68
2022/12/04 04:35:32;;;;;;;;;;;;;;;8.62;78.03;96082.13;5114480;28;1967;-67
2022/12/04 04:38:04;;;;;;;;;;;;;;;8.59;78.23;96081.41;5114631;28;970;-68
2022/12/04 04:40:35;;;;;;;;;;;;;;;8.48;78.66;96086.78;5094049;28;1049;-68
2022/12/04 04:43:10;;;;;;;;;;;;;;;8.57;78.88;96080.69;5094340;28;1032;-68
2022/12/04 04:45:40;;;;;;;;;;;;;;;8.60;78.20;96077.75;5094124;28;989;-67
2022/12/04 04:48:18;;;;;;;;;;;;;;;8.51;78.44;96080.34;5076169;28;1627;-67
2022/12/04 04:50:45;;;;;;;;;;;;;;;8.47;78.63;96071.75;5093829;28;1575;-67
2022/12/04 04:53:14;;;;;;;;;;;;;;;8.43;78.69;96082.78;5094202;28;1048;-67
2022/12/04 04:55:41;;;;;;;;;;;;;;;8.32;79.41;96081.78;5093755;28;1980;-67
2022/12/04 04:58:12;;;;;;;;;;;;;;;8.33;79.45;96080.00;5075884;28;1066;-66
2022/12/04 05:00:38;;;;;;;;;;;;;;;8.37;79.48;96076.94;5093738;28;1050;-68
2022/12/04 05:03:05;;;;;;;;;;;;;;;8.46;79.15;96074.53;5093844;28;966;-68
2022/12/04 05:05:31;;;;;;;;;;;;;;;8.49;78.80;96079.63;5093578;28;1112;-68
2022/12/04 05:07:57;;;;;;;;;;;;;;;8.47;78.81;96082.41;5093988;28;1033;-67
2022/12/04 05:10:23;;;;;;;;;;;;;;;8.50;78.92;96086.63;5093677;28;1116;-68
2022/12/04 05:12:49;;;;;;;;;;;;;;;8.47;79.00;96084.22;5093527;28;1139;-68
2022/12/04 05:15:15;;;;;;;;;;;;;;;8.42;79.21;96084.59;5075501;28;1906;-67
2022/12/04 05:17:41;;;;;;;;;;;;;;;8.43;78.78;96086.28;5075700;28;1044;-67
2022/12/04 05:20:08;;;;;;;;;;;;;;;8.40;78.83;96086.50;5093517;28;1024;-67
2022/12/04 05:22:35;;;;;;;;;;;;;;;8.34;78.99;96079.00;5093396;28;1079;-67
2022/12/04 05:25:02;;;;;;;;;;;;;;;8.34;78.95;96074.53;5093457;28;1041;-67
2022/12/04 05:27:29;;;;;;;;;;;;;;;8.37;78.73;96086.75;5093534;28;1309;-68
2022/12/04 05:29:56;;;;;;;;;;;;;;;8.40;78.54;96086.50;5093483;28;985;-69
2022/12/04 05:32:23;;;;;;;;;;;;;;;8.45;78.30;96087.00;5093525;28;1262;-68
2022/12/04 05:34:50;;;;;;;;;;;;;;;8.48;78.44;96083.25;5093205;28;1910;-67
2022/12/04 05:37:16;;;;;;;;;;;;;;;8.57;78.40;96091.34;5093608;28;1005;-68
2022/12/04 05:39:42;;;;;;;;;;;;;;;8.58;78.37;96087.69;5107858;28;1146;-68
2022/12/04 05:42:08;;;;;;;;;;;;;;;8.65;77.75;96084.53;5114643;28;1053;-68
2022/12/04 05:44:34;;;;;;;;;;;;;;;8.63;77.93;96083.81;5134274;28;1013;-68
2022/12/04 05:47:01;;;;;;;;;;;;;;;8.55;78.06;96079.09;5134275;28;1096;-67
2022/12/04 05:49:30;;;;;;;;;;;;;;;8.63;77.93;96089.13;5134090;28;977;-68
2022/12/04 05:51:57;;;;;;;;;;;;;;;8.65;77.56;96096.06;5134150;28;1041;-68
2022/12/04 05:54:23;;;;;;;;;;;;;;;8.57;78.01;96090.50;5134065;28;2043;-68
2022/12/04 05:56:49;;;;;;;;;;;;;;;8.47;78.54;96094.88;5134036;28;1068;-67
2022/12/04 05:59:16;;;;;;;;;;;;;;;8.44;79.00;96095.13;5134215;28;973;-67
2022/12/04 06:01:42;;;;;;;;;;;;;;;8.57;78.82;96099.34;5134008;28;1000;-68
2022/12/04 06:04:09;;;;;;;;;;;;;;;8.69;78.15;96094.81;5133995;28;1033;-68
2022/12/04 06:06:36;;;;;;;;;;;;;;;8.71;78.23;96090.22;5134150;28;1023;-67
2022/12/04 06:09:02;;;;;;;;;;;;;;;8.76;78.13;96095.16;5116044;28;996;-68
2022/12/04 06:11:30;;;;;;;;;;;;;;;8.76;78.05;96092.47;5134056;28;1048;-68
2022/12/04 06:13:57;;;;;;;;;;;;;;;8.68;78.42;96090.44;5133812;28;1902;-68
2022/12/04 06:16:25;;;;;;;;;;;;;;;8.68;78.67;96094.94;5133961;28;1037;-68
2022/12/04 06:18:52;;;;;;;;;;;;;;;8.76;78.52;96105.81;5133890;28;1039;-67
2022/12/04 06:21:19;;;;;;;;;;;;;;;8.81;78.25;96105.44;5133885;28;1256;-67
2022/12/04 06:23:45;;;;;;;;;;;;;;;8.74;78.23;96105.94;5115532;28;1211;-68
2022/12/04 06:26:12;;;;;;;;;;;;;;;8.78;78.65;96114.53;5115463;28;1088;-68
2022/12/04 06:28:38;;;;;;;;;;;;;;;8.77;78.34;96116.38;5135083;27;1108;-68
2022/12/04 06:31:05;;;;;;;;;;;;;;;8.83;77.89;96108.84;5119342;27;1053;-68
2022/12/04 06:33:32;;;;;;;;;;;;;;;8.85;77.85;96113.06;5137638;27;977;-68
2022/12/04 06:36:09;;;;;;;;;;;;;;;8.86;78.01;96113.91;5137756;27;1910;-68
2022/12/04 06:38:36;;;;;;;;;;;;;;;8.85;78.13;96118.41;5130779;27;1156;-68
2022/12/04 06:41:03;;;;;;;;;;;;;;;8.87;78.56;96127.13;5116666;28;1097;-68
2022/12/04 06:43:30;;;;;;;;;;;;;;;8.90;77.98;96115.38;5116685;28;1127;-68
2022/12/04 06:46:04;;;;;;;;;;;;;;;8.88;77.84;96110.16;5116581;28;1109;-68
2022/12/04 06:48:30;;;;;;;;;;;;;;;8.90;77.10;96108.19;5116741;28;1093;-68
2022/12/04 06:51:01;;;;;;;;;;;;;;;8.86;77.58;96098.78;5116597;28;1267;-68
2022/12/04 06:53:29;;;;;;;;;;;;;;;8.78;77.74;96096.72;5116607;28;962;-67
2022/12/04 06:55:58;;;;;;;;;;;;;;;8.78;77.65;96104.72;5116465;28;1941;-68
2022/12/04 06:58:25;;;;;;;;;;;;;;;8.82;78.02;96115.13;5116354;28;1030;-68
2022/12/04 07:00:51;;;;;;;;;;;;;;;8.85;77.87;96115.72;5116392;28;1147;-68
2022/12/04 07:03:18;;;;;;;;;;;;;;;8.78;78.72;96120.72;5098328;28;1109;-68
2022/12/04 07:05:44;;;;;;;;;;;;;;;8.84;78.44;96121.19;5116186;28;1338;-68
2022/12/04 07:08:10;;;;;;;;;;;;;;;8.86;78.21;96114.78;5116269;28;1053;-68
2022/12/04 07:10:36;;;;;;;;;;;;;;;8.91;77.32;96117.03;5116203;28;1017;-69
2022/12/04 07:13:03;;;;;;;;;;;;;;;8.95;77.39;96118.47;5116106;28;1128;-68
2022/12/04 07:15:31;;;;;;;;;;;;;;;8.93;78.04;96118.59;5116235;28;1909;-69
2022/12/04 07:17:57;;;;;;;;;;;;;;;8.97;77.80;96133.41;5098115;28;965;-66
2022/12/04 07:20:23;;;;;;;;;;;;;;;8.88;78.04;96133.28;5115908;28;1646;-68
2022/12/04 07:22:49;;;;;;;;;;;;;;;8.87;78.34;96131.59;5116021;28;1041;-68
2022/12/04 07:25:15;;;;;;;;;;;;;;;8.94;78.24;96124.81;5116049;28;1124;-68
2022/12/04 07:27:42;;;;;;;;;;;;;;;8.98;78.02;96121.72;5115763;28;1174;-67
2022/12/04 07:30:08;;;;;;;;;;;;;;;9.00;77.39;96126.94;5097756;28;1077;-67
2022/12/04 07:32:34;;;;;;;;;;;;;;;8.74;78.45;96126.44;5115550;28;1132;-67
2022/12/04 07:35:00;;;;;;;;;;;;;;;8.75;78.09;96125.47;5114805;28;2415;-67
2022/12/04 07:37:27;;;;;;;;;;;;;;;8.66;78.39;96132.38;5115622;28;1049;-67
2022/12/04 07:39:52;;;;;;;;;;;;;;;8.51;79.23;96134.47;5115567;28;1213;-68
2022/12/04 07:42:19;;;;;;;;;;;;;;;8.66;78.57;96128.88;5115587;28;969;-68
2022/12/04 07:44:45;;;;;;;;;;;;;;;8.81;78.24;96124.13;5115740;28;1055;-67
2022/12/04 07:47:11;;;;;;;;;;;;;;;9.01;76.89;96120.66;5115743;28;1016;-68
2022/12/04 07:49:38;;;;;;;;;;;;;;;9.14;76.42;96125.78;5115513;28;1037;-67
2022/12/04 07:52:04;;;;;;;;;;;;;;;9.18;76.10;96125.41;5115602;28;953;-67
2022/12/04 07:54:30;;;;;;;;;;;;;;;9.31;75.30;96111.03;5097177;28;1989;-67
2022/12/04 07:56:56;;;;;;;;;;;;;;;9.49;74.60;96114.81;5115209;28;1187;-67
2022/12/04 07:59:22;;;;;;;;;;;;;;;9.37;75.02;96123.84;5097445;28;1008;-67
2022/12/04 08:01:48;;;;;;;;;;;;;;;9.36;75.53;96128.34;5115115;28;1045;-67
2022/12/04 08:04:14;;;;;;;;;;;;;;;9.23;75.90;96135.69;5115192;28;1045;-67
2022/12/04 08:06:41;;;;;;;;;;;;;;;9.40;75.56;96136.09;5115054;28;1108;-67
2022/12/04 08:09:07;;;;;;;;;;;;;;;9.50;73.91;96131.66;5115074;28;1045;-67
2022/12/04 08:11:33;;;;;;;;;;;;;;;9.53;73.62;96131.41;5114919;28;1033;-67
2022/12/04 08:14:00;;;;;;;;;;;;;;;9.42;73.13;96140.31;5115133;28;1914;-67
2022/12/04 08:16:27;;;;;;;;;;;;;;;9.39;73.64;96143.28;5114828;28;1037;-67
2022/12/04 08:18:54;;;;;;;;;;;;;;;9.43;73.37;96138.50;5115052;28;969;-67
2022/12/04 08:21:22;;;;;;;;;;;;;;;9.41;73.33;96130.66;5114821;28;1322;-67
2022/12/04 08:23:49;;;;;;;;;;;;;;;9.40;74.87;96126.28;5096605;28;1061;-67
2022/12/04 08:26:15;;;;;;;;;;;;;;;9.45;75.95;96120.56;5114650;28;937;-67
2022/12/04 08:28:42;;;;;;;;;;;;;;;9.46;73.44;96125.75;5096847;28;973;-67
2022/12/04 08:31:08;;;;;;;;;;;;;;;9.49;73.49;96124.66;5114643;28;1097;-67
2022/12/04 08:33:34;;;;;;;;;;;;;;;9.60;72.62;96124.59;5114536;28;1115;-66
2022/12/04 08:36:00;;;;;;;;;;;;;;;9.72;72.95;96112.84;5114593;28;1977;-67
2022/12/04 08:38:26;;;;;;;;;;;;;;;9.73;72.64;96103.84;5114337;28;1153;-67
2022/12/04 08:40:52;;;;;;;;;;;;;;;9.84;74.13;96116.25;5114958;28;989;-67
2022/12/04 08:43:18;;;;;;;;;;;;;;;10.00;74.22;96104.25;5114409;28;1054;-67
2022/12/04 08:45:53;;;;;;;;;;;;;;;10.05;73.82;96115.38;5114253;28;1186;-67
2022/12/04 08:48:20;;;;;;;;;;;;;;;9.99;73.98;96114.09;5096658;28;1063;-68
2022/12/04 08:50:46;;;;;;;;;;;;;;;9.97;73.44;96108.88;5113571;28;1156;-67
2022/12/04 08:53:12;;;;;;;;;;;;;;;9.97;72.81;96100.84;5114210;28;1101;-67
2022/12/04 08:55:38;;;;;;;;;;;;;;;9.92;73.57;96096.91;5114031;28;1988;-67
2022/12/04 08:58:04;;;;;;;;;;;;;;;9.91;73.34;96097.91;5114367;28;1406;-67
2022/12/04 09:00:31;;;;;;;;;;;;;;;9.91;72.43;96092.56;5114149;28;1037;-67
2022/12/04 09:02:57;;;;;;;;;;;;;;;9.91;72.34;96080.03;5114070;28;1108;-67
2022/12/04 09:05:23;;;;;;;;;;;;;;;9.75;73.30;96082.34;5114082;28;1116;-67
2022/12/04 09:07:49;;;;;;;;;;;;;;;9.80;72.74;96077.44;5095841;28;1066;-67
2022/12/04 09:10:15;;;;;;;;;;;;;;;9.72;72.69;96070.09;5113946;28;985;-66
2022/12/04 09:12:41;;;;;;;;;;;;;;;9.78;73.36;96071.41;5114107;28;1207;-67
2022/12/04 09:15:07;;;;;;;;;;;;;;;9.92;72.60;96073.72;5113845;28;1991;-67
2022/12/04 09:17:35;;;;;;;;;;;;;;;10.02;70.83;96065.75;5113927;28;957;-66
2022/12/04 09:20:04;;;;;;;;;;;;;;;10.35;70.12;96051.22;5095946;28;962;-66
2022/12/04 09:22:30;;;;;;;;;;;;;;;12.20;63.34;96038.53;5113624;28;1108;-66
2022/12/04 09:24:56;;;;;;;;;;;;;;;12.01;63.25;96039.47;5113792;28;962;-66
2022/12/04 09:27:22;;;;;;;;;;;;;;;11.77;64.14;96038.16;5113799;28;1096;-66
2022/12/04 09:29:49;;;;;;;;;;;;;;;11.51;64.48;96035.25;5095760;28;1855;-66
2022/12/04 09:32:15;;;;;;;;;;;;;;;11.71;64.06;96020.81;5113898;28;1028;-65
2022/12/04 09:34:40;;;;;;;;;;;;;;;11.75;64.29;96026.72;5113679;28;1918;-66
2022/12/04 09:37:06;;;;;;;;;;;;;;;11.63;65.40;96030.56;5113737;28;1033;-66
2022/12/04 09:39:33;;;;;;;;;;;;;;;11.53;64.68;96026.13;5113477;28;1216;-65
2022/12/04 09:42:14;;;;;;;;;;;;;;;11.58;65.05;96027.50;5113657;28;913;-66
2022/12/04 09:45:13;;;;;;;;;;;;;;;11.61;64.98;96014.66;5113676;28;958;-65
2022/12/04 09:47:42;;;;;;;;;;;;;;;11.82;64.31;96008.22;5057777;28;1368;-67
2022/12/04 09:50:14;;;;;;;;;;;;;;;11.71;64.68;96003.91;5113608;28;1045;-67
2022/12/04 09:52:49;;;;;;;;;;;;;;;11.44;66.18;95994.84;5113757;28;1028;-68
2022/12/04 09:55:34;;;;;;;;;;;;;;;11.42;66.59;96002.19;5113585;28;1918;-68
2022/12/04 09:58:02;;;;;;;;;;;;;;;11.43;66.42;95997.66;5113589;28;981;-67
2022/12/04 10:00:29;;;;;;;;;;;;;;;11.46;66.90;96000.06;5113428;28;1131;-68
2022/12/04 10:03:04;;;;;;;;;;;;;;;11.50;66.60;95994.25;5114692;28;1077;-68
2022/12/04 10:05:49;;;;;;;;;;;;;;;11.51;65.74;95993.28;5117688;28;1020;-69
2022/12/04 10:08:20;;;;;;;;;;;;;;;11.43;66.38;95982.44;5117493;28;1013;-68
2022/12/04 10:11:12;;;;;;;;;;;;;;;11.32;66.32;95990.63;5117337;28;1201;-68
2022/12/04 10:13:47;;;;;;;;;;;;;;;11.10;66.92;95986.47;5112649;28;1205;-68
2022/12/04 10:16:18;;;;;;;;;;;;;;;10.96;68.29;95990.44;5117388;28;1910;-69
2022/12/04 10:18:56;;;;;;;;;;;;;;;10.93;68.44;95985.38;5117304;28;1101;-67
2022/12/04 10:21:22;;;;;;;;;;;;;;;10.92;69.18;95984.50;5099228;28;1092;-67
2022/12/04 10:24:02;;;;;;;;;;;;;;;10.90;69.71;95981.13;5117426;28;1119;-67
2022/12/04 10:26:32;;;;;;;;;;;;;;;10.90;69.97;95973.09;5117143;28;1120;-67
2022/12/04 10:29:01;;;;;;;;;;;;;;;10.91;70.01;95969.47;5117267;28;977;-67
2022/12/04 10:31:28;;;;;;;;;;;;;;;10.94;69.90;95969.16;5117115;28;1002;-67
2022/12/04 10:34:02;;;;;;;;;;;;;;;10.96;69.83;95965.50;5117386;28;1012;-67
2022/12/04 10:36:31;;;;;;;;;;;;;;;10.98;70.09;95950.16;5116946;28;1519;-68
2022/12/04 10:38:58;;;;;;;;;;;;;;;10.94;70.10;95944.25;5116914;28;1292;-68
2022/12/04 10:41:25;;;;;;;;;;;;;;;10.87;70.59;95952.00;5116868;28;1089;-68
2022/12/04 10:43:51;;;;;;;;;;;;;;;10.81;70.79;95949.06;5116872;28;1053;-69
2022/12/04 10:46:22;;;;;;;;;;;;;;;10.79;71.12;95940.31;5116763;28;1198;-68
2022/12/04 10:48:49;;;;;;;;;;;;;;;10.72;71.13;95946.25;5116750;28;1534;-68
2022/12/04 10:51:17;;;;;;;;;;;;;;;10.65;71.63;95942.44;5116939;28;1000;-67
2022/12/04 10:53:44;;;;;;;;;;;;;;;10.66;71.28;95941.47;5116745;28;1028;-67
2022/12/04 10:56:16;;;;;;;;;;;;;;;10.55;71.86;95938.97;5116670;28;1906;-68
2022/12/04 10:58:53;;;;;;;;;;;;;;;10.67;71.68;95936.97;5116620;28;969;-68
2022/12/04 11:01:20;;;;;;;;;;;;;;;10.74;71.60;95944.28;5116560;28;1135;-68
2022/12/04 11:03:54;;;;;;;;;;;;;;;10.79;71.77;95940.31;5116602;28;937;-68
2022/12/04 11:06:25;;;;;;;;;;;;;;;10.79;71.56;95933.13;5116630;28;996;-68
2022/12/04 11:08:52;;;;;;;;;;;;;;;10.78;71.75;95938.66;5098492;28;1044;-68
2022/12/04 11:11:26;;;;;;;;;;;;;;;10.77;71.13;95942.31;5116359;28;1052;-67
2022/12/04 11:14:03;;;;;;;;;;;;;;;10.70;71.25;95942.88;5115823;28;1049;-67
2022/12/04 11:16:34;;;;;;;;;;;;;;;10.77;71.26;95939.63;5116344;28;1037;-68
2022/12/04 11:19:01;;;;;;;;;;;;;;;10.76;71.18;95941.47;5116212;28;1036;-72
2022/12/04 11:21:28;;;;;;;;;;;;;;;10.78;71.36;95941.34;5116028;28;1257;-67
2022/12/04 11:23:55;;;;;;;;;;;;;;;10.81;71.21;95935.69;5116074;28;1046;-67
2022/12/04 11:26:30;;;;;;;;;;;;;;;10.72;71.64;95935.56;5116313;28;1028;-67
2022/12/04 11:29:00;;;;;;;;;;;;;;;10.70;71.72;95947.41;5116221;28;1023;-68
2022/12/04 11:31:26;;;;;;;;;;;;;;;10.66;72.00;95940.63;5116019;28;961;-69
2022/12/04 11:33:59;;;;;;;;;;;;;;;10.65;72.45;95945.13;5115952;28;1049;-72
2022/12/04 11:36:28;;;;;;;;;;;;;;;10.59;72.31;95956.41;5115857;28;1114;-69
2022/12/04 11:39:03;;;;;;;;;;;;;;;10.55;72.04;95946.97;5115718;28;1213;-69
2022/12/04 11:41:31;;;;;;;;;;;;;;;10.55;71.95;95946.97;5115846;28;1032;-69
2022/12/04 11:43:57;;;;;;;;;;;;;;;10.58;72.22;95938.66;5115699;28;1464;-70
2022/12/04 11:46:26;;;;;;;;;;;;;;;10.69;71.98;95943.84;5115737;28;969;-70
2022/12/04 11:48:52;;;;;;;;;;;;;;;10.75;71.57;95945.94;5115622;28;1044;-70
2022/12/04 11:51:24;;;;;;;;;;;;;;;10.81;71.40;95949.06;5115515;28;1053;-69
2022/12/04 11:54:02;;;;;;;;;;;;;;;10.87;71.33;95949.34;5097323;28;1647;-69
2022/12/04 11:56:32;;;;;;;;;;;;;;;10.98;71.04;95950.16;5115436;28;993;-70
2022/12/04 11:59:20;;;;;;;;;;;;;;;11.06;70.32;95942.25;5115328;28;1061;-70
2022/12/04 12:02:02;;;;;;;;;;;;;;;11.02;70.24;95947.06;5115231;28;1116;-69
2022/12/04 12:04:36;;;;;;;;;;;;;;;10.99;70.47;95941.16;5097279;28;1028;-69
2022/12/04 12:07:12;;;;;;;;;;;;;;;11.07;70.58;95943.94;5115392;28;1048;-70
2022/12/04 12:09:58;;;;;;;;;;;;;;;11.10;70.15;95938.31;5097059;28;1124;-70
2022/12/04 12:12:33;;;;;;;;;;;;;;;11.07;70.37;95936.75;5096994;28;1186;-70
2022/12/04 12:15:09;;;;;;;;;;;;;;;11.10;70.58;95940.97;5115253;28;1993;-70
2022/12/04 12:17:54;;;;;;;;;;;;;;;11.14;70.29;95940.53;5115002;28;1053;-69
2022/12/04 12:24:06;;;;;;;;;;;;;;;11.19;69.83;95936.56;5103022;28;1221;-69
2022/12/04 12:26:41;;;;;;;;;;;;;;;11.31;69.53;95930.91;5113913;28;933;-68
2022/12/04 12:29:17;;;;;;;;;;;;;;;11.37;69.19;95926.78;5096762;28;1128;-70
2022/12/04 12:31:43;;;;;;;;;;;;;;;11.46;69.07;95923.22;5093916;28;1632;-70
2022/12/04 12:34:21;;;;;;;;;;;;;;;11.51;69.14;95926.31;5114500;28;1905;-70
2022/12/04 12:36:50;;;;;;;;;;;;;;;11.63;68.97;95921.59;5096596;28;1460;-70
2022/12/04 12:39:23;;;;;;;;;;;;;;;11.78;68.31;95903.19;5114444;28;1165;-70
2022/12/04 12:41:49;;;;;;;;;;;;;;;11.82;67.30;95909.94;5114441;28;1080;-70
2022/12/04 12:44:44;;;;;;;;;;;;;;;11.72;68.19;95904.66;5114628;28;1053;-70
2022/12/04 12:47:18;;;;;;;;;;;;;;;11.58;68.54;95918.53;5097182;28;1326;-70
2022/12/04 12:49:58;;;;;;;;;;;;;;;11.60;67.53;95913.84;5096447;28;1661;-70
2022/12/04 12:52:42;;;;;;;;;;;;;;;11.74;67.56;95899.09;5096085;28;1200;-70
2022/12/04 12:55:15;;;;;;;;;;;;;;;11.76;67.54;95904.31;5114249;28;1914;-70
2022/12/04 12:57:44;;;;;;;;;;;;;;;11.63;68.54;95907.34;5114147;28;1428;-70
2022/12/04 13:00:15;;;;;;;;;;;;;;;11.59;69.04;95908.66;5114367;28;1578;-70
2022/12/04 13:02:41;;;;;;;;;;;;;;;11.55;69.16;95899.22;5114000;28;1497;-70
2022/12/04 13:05:09;;;;;;;;;;;;;;;11.59;68.93;95892.56;5114183;28;1218;-70
2022/12/04 13:07:51;;;;;;;;;;;;;;;11.57;68.13;95887.38;5114066;28;1072;-70
2022/12/04 13:10:22;;;;;;;;;;;;;;;11.53;67.45;95892.19;5114037;28;1115;-71
2022/12/04 13:12:55;;;;;;;;;;;;;;;11.44;67.70;95887.72;5113927;28;1066;-70
2022/12/04 13:15:24;;;;;;;;;;;;;;;11.31;68.75;95889.91;5114121;28;1910;-70
2022/12/04 13:17:52;;;;;;;;;;;;;;;11.27;67.71;95894.72;5113914;28;1704;-70
2022/12/04 13:20:24;;;;;;;;;;;;;;;11.22;67.38;95898.81;5114113;28;983;-70
2022/12/04 13:22:50;;;;;;;;;;;;;;;11.12;67.82;95888.16;5113617;28;1591;-70
2022/12/04 13:25:18;;;;;;;;;;;;;;;11.14;67.69;95883.50;5113857;28;1004;-70
2022/12/04 13:28:05;;;;;;;;;;;;;;;11.17;67.57;95895.72;5114033;28;1037;-70
2022/12/04 13:30:31;;;;;;;;;;;;;;;11.16;67.63;95899.41;5082420;28;1170;-69
2022/12/04 13:33:17;;;;;;;;;;;;;;;11.19;66.82;95899.09;5113730;28;1333;-70